sensor_id;sensor_type;location;lat;lon;timestamp;P1;durP1;ratioP1;P2;durP2;ratioP2
11962;SDS011;62678;52.130;5.584;2023-02-22T00:00:25;41.45;;;24.30;;
11962;SDS011;62678;52.130;5.584;2023-02-22T00:03:07;38.25;;;22.38;;
11962;SDS011;62678;52.130;5.584;2023-02-22T00:05:35;37.50;;;23.38;;
11962;SDS011;62678;52.130;5.584;2023-02-22T00:08:03;38.05;;;22.98;;
11962;SDS011;62678;52.130;5.584;2023-02-22T00:10:33;37.65;;;22.38;;
11962;SDS011;62678;52.130;5.584;2023-02-22T00:13:03;34.53;;;20.67;;
11962;SDS011;62678;52.130;5.584;2023-02-22T00:15:32;36.30;;;21.70;;
11962;SDS011;62678;52.130;5.584;2023-02-22T00:18:00;33.47;;;20.05;;
11962;SDS011;62678;52.130;5.584;2023-02-22T00:20:28;31.30;;;18.70;;
11962;SDS011;62678;52.130;5.584;2023-02-22T00:22:55;32.65;;;19.27;;
11962;SDS011;62678;52.130;5.584;2023-02-22T00:25:25;32.40;;;19.08;;
11962;SDS011;62678;52.130;5.584;2023-02-22T00:27:52;32.25;;;19.40;;
11962;SDS011;62678;52.130;5.584;2023-02-22T00:30:21;31.13;;;18.40;;
11962;SDS011;62678;52.130;5.584;2023-02-22T00:32:52;34.53;;;20.08;;
11962;SDS011;62678;52.130;5.584;2023-02-22T00:35:21;33.60;;;18.92;;
11962;SDS011;62678;52.130;5.584;2023-02-22T00:37:50;33.80;;;19.52;;
11962;SDS011;62678;52.130;5.584;2023-02-22T00:40:18;33.80;;;19.42;;
11962;SDS011;62678;52.130;5.584;2023-02-22T00:42:47;33.08;;;19.30;;
11962;SDS011;62678;52.130;5.584;2023-02-22T00:45:15;34.40;;;18.90;;
11962;SDS011;62678;52.130;5.584;2023-02-22T00:47:42;32.22;;;18.80;;
11962;SDS011;62678;52.130;5.584;2023-02-22T00:50:11;32.28;;;18.40;;
11962;SDS011;62678;52.130;5.584;2023-02-22T00:52:39;34.58;;;19.50;;
11962;SDS011;62678;52.130;5.584;2023-02-22T00:55:07;31.52;;;18.38;;
11962;SDS011;62678;52.130;5.584;2023-02-22T00:57:39;36.80;;;19.33;;
11962;SDS011;62678;52.130;5.584;2023-02-22T01:00:07;33.63;;;19.75;;
11962;SDS011;62678;52.130;5.584;2023-02-22T01:02:36;34.97;;;20.73;;
11962;SDS011;62678;52.130;5.584;2023-02-22T01:05:04;35.20;;;21.15;;
11962;SDS011;62678;52.130;5.584;2023-02-22T01:07:33;35.70;;;21.55;;
11962;SDS011;62678;52.130;5.584;2023-02-22T01:10:00;33.22;;;20.65;;
11962;SDS011;62678;52.130;5.584;2023-02-22T01:12:27;36.75;;;21.40;;
11962;SDS011;62678;52.130;5.584;2023-02-22T01:14:54;36.47;;;21.40;;
11962;SDS011;62678;52.130;5.584;2023-02-22T01:17:22;37.47;;;22.45;;
11962;SDS011;62678;52.130;5.584;2023-02-22T01:19:49;37.03;;;22.08;;
11962;SDS011;62678;52.130;5.584;2023-02-22T01:22:16;38.17;;;22.77;;
11962;SDS011;62678;52.130;5.584;2023-02-22T01:24:46;38.35;;;23.08;;
11962;SDS011;62678;52.130;5.584;2023-02-22T01:27:14;37.88;;;22.67;;
11962;SDS011;62678;52.130;5.584;2023-02-22T01:29:41;42.97;;;24.40;;
11962;SDS011;62678;52.130;5.584;2023-02-22T01:32:08;41.58;;;23.23;;
11962;SDS011;62678;52.130;5.584;2023-02-22T01:34:36;41.35;;;24.00;;
11962;SDS011;62678;52.130;5.584;2023-02-22T01:37:03;43.28;;;24.23;;
11962;SDS011;62678;52.130;5.584;2023-02-22T01:39:32;42.13;;;25.25;;
11962;SDS011;62678;52.130;5.584;2023-02-22T01:42:00;43.10;;;24.65;;
11962;SDS011;62678;52.130;5.584;2023-02-22T01:44:29;42.15;;;24.27;;
11962;SDS011;62678;52.130;5.584;2023-02-22T01:46:58;39.97;;;23.73;;
11962;SDS011;62678;52.130;5.584;2023-02-22T01:49:28;38.97;;;23.67;;
11962;SDS011;62678;52.130;5.584;2023-02-22T01:51:59;39.70;;;23.88;;
11962;SDS011;62678;52.130;5.584;2023-02-22T01:54:29;44.08;;;25.15;;
11962;SDS011;62678;52.130;5.584;2023-02-22T01:57:03;45.55;;;26.17;;
11962;SDS011;62678;52.130;5.584;2023-02-22T01:59:38;46.55;;;26.02;;
11962;SDS011;62678;52.130;5.584;2023-02-22T02:02:07;47.50;;;26.27;;
11962;SDS011;62678;52.130;5.584;2023-02-22T02:04:35;50.63;;;28.13;;
11962;SDS011;62678;52.130;5.584;2023-02-22T02:07:03;45.80;;;25.58;;
11962;SDS011;62678;52.130;5.584;2023-02-22T02:09:34;50.00;;;27.58;;
11962;SDS011;62678;52.130;5.584;2023-02-22T02:12:06;49.33;;;26.30;;
11962;SDS011;62678;52.130;5.584;2023-02-22T02:14:39;47.20;;;26.30;;
11962;SDS011;62678;52.130;5.584;2023-02-22T02:17:08;49.33;;;27.20;;
11962;SDS011;62678;52.130;5.584;2023-02-22T02:19:40;46.97;;;26.48;;
11962;SDS011;62678;52.130;5.584;2023-02-22T02:22:20;48.70;;;26.77;;
11962;SDS011;62678;52.130;5.584;2023-02-22T02:28:03;47.40;;;26.30;;
11962;SDS011;62678;52.130;5.584;2023-02-22T02:31:04;50.78;;;27.38;;
11962;SDS011;62678;52.130;5.584;2023-02-22T02:33:48;49.45;;;27.00;;
11962;SDS011;62678;52.130;5.584;2023-02-22T02:36:22;51.42;;;28.35;;
11962;SDS011;62678;52.130;5.584;2023-02-22T02:38:56;50.80;;;27.73;;
11962;SDS011;62678;52.130;5.584;2023-02-22T02:41:29;48.90;;;27.40;;
11962;SDS011;62678;52.130;5.584;2023-02-22T02:44:01;53.55;;;29.55;;
11962;SDS011;62678;52.130;5.584;2023-02-22T02:46:31;54.50;;;29.73;;
11962;SDS011;62678;52.130;5.584;2023-02-22T02:49:03;54.05;;;29.52;;
11962;SDS011;62678;52.130;5.584;2023-02-22T02:51:35;52.47;;;29.27;;
11962;SDS011;62678;52.130;5.584;2023-02-22T02:54:05;52.65;;;29.05;;
11962;SDS011;62678;52.130;5.584;2023-02-22T02:56:33;56.97;;;29.52;;
11962;SDS011;62678;52.130;5.584;2023-02-22T02:59:00;56.10;;;29.70;;
11962;SDS011;62678;52.130;5.584;2023-02-22T03:01:34;53.50;;;29.10;;
11962;SDS011;62678;52.130;5.584;2023-02-22T03:04:21;58.88;;;30.42;;
11962;SDS011;62678;52.130;5.584;2023-02-22T03:07:02;55.53;;;29.38;;
11962;SDS011;62678;52.130;5.584;2023-02-22T03:09:47;60.33;;;30.27;;
11962;SDS011;62678;52.130;5.584;2023-02-22T03:12:27;61.10;;;31.23;;
11962;SDS011;62678;52.130;5.584;2023-02-22T03:15:11;57.38;;;31.02;;
11962;SDS011;62678;52.130;5.584;2023-02-22T03:17:46;58.13;;;30.92;;
11962;SDS011;62678;52.130;5.584;2023-02-22T03:20:21;59.88;;;30.92;;
11962;SDS011;62678;52.130;5.584;2023-02-22T03:22:56;60.03;;;30.20;;
11962;SDS011;62678;52.130;5.584;2023-02-22T03:25:29;60.97;;;29.90;;
11962;SDS011;62678;52.130;5.584;2023-02-22T03:28:00;66.78;;;31.50;;
11962;SDS011;62678;52.130;5.584;2023-02-22T03:30:31;65.15;;;32.13;;
11962;SDS011;62678;52.130;5.584;2023-02-22T03:33:03;64.60;;;31.73;;
11962;SDS011;62678;52.130;5.584;2023-02-22T03:35:36;64.75;;;32.85;;
11962;SDS011;62678;52.130;5.584;2023-02-22T03:38:08;70.65;;;33.33;;
11962;SDS011;62678;52.130;5.584;2023-02-22T03:40:40;66.20;;;31.50;;
11962;SDS011;62678;52.130;5.584;2023-02-22T03:43:12;64.22;;;31.10;;
11962;SDS011;62678;52.130;5.584;2023-02-22T03:45:44;67.68;;;32.97;;
11962;SDS011;62678;52.130;5.584;2023-02-22T03:48:15;65.45;;;32.22;;
11962;SDS011;62678;52.130;5.584;2023-02-22T03:50:49;62.25;;;30.40;;
11962;SDS011;62678;52.130;5.584;2023-02-22T03:53:17;65.40;;;31.15;;
11962;SDS011;62678;52.130;5.584;2023-02-22T03:55:47;68.90;;;32.15;;
11962;SDS011;62678;52.130;5.584;2023-02-22T03:58:16;70.45;;;31.48;;
11962;SDS011;62678;52.130;5.584;2023-02-22T04:00:45;68.47;;;32.55;;
11962;SDS011;62678;52.130;5.584;2023-02-22T04:03:17;71.25;;;32.15;;
11962;SDS011;62678;52.130;5.584;2023-02-22T04:05:44;73.15;;;32.00;;
11962;SDS011;62678;52.130;5.584;2023-02-22T04:08:12;73.80;;;33.88;;
11962;SDS011;62678;52.130;5.584;2023-02-22T04:10:39;67.25;;;31.77;;
11962;SDS011;62678;52.130;5.584;2023-02-22T04:13:07;72.80;;;32.47;;
11962;SDS011;62678;52.130;5.584;2023-02-22T04:15:34;71.53;;;34.28;;
11962;SDS011;62678;52.130;5.584;2023-02-22T04:18:01;75.32;;;34.55;;
11962;SDS011;62678;52.130;5.584;2023-02-22T04:20:28;74.40;;;34.78;;
11962;SDS011;62678;52.130;5.584;2023-02-22T04:22:55;78.32;;;34.75;;
11962;SDS011;62678;52.130;5.584;2023-02-22T04:25:23;74.28;;;33.17;;
11962;SDS011;62678;52.130;5.584;2023-02-22T04:27:50;76.45;;;34.25;;
11962;SDS011;62678;52.130;5.584;2023-02-22T04:30:18;77.68;;;34.95;;
11962;SDS011;62678;52.130;5.584;2023-02-22T04:32:45;78.07;;;35.50;;
11962;SDS011;62678;52.130;5.584;2023-02-22T04:35:12;78.13;;;33.83;;
11962;SDS011;62678;52.130;5.584;2023-02-22T04:37:38;75.20;;;34.05;;
11962;SDS011;62678;52.130;5.584;2023-02-22T04:40:06;83.53;;;35.35;;
11962;SDS011;62678;52.130;5.584;2023-02-22T04:42:36;79.80;;;35.28;;
11962;SDS011;62678;52.130;5.584;2023-02-22T04:45:04;75.93;;;34.80;;
11962;SDS011;62678;52.130;5.584;2023-02-22T04:47:32;81.55;;;34.63;;
11962;SDS011;62678;52.130;5.584;2023-02-22T04:49:59;75.32;;;33.30;;
11962;SDS011;62678;52.130;5.584;2023-02-22T04:52:26;77.28;;;34.20;;
11962;SDS011;62678;52.130;5.584;2023-02-22T04:54:53;81.90;;;35.05;;
11962;SDS011;62678;52.130;5.584;2023-02-22T04:57:20;76.93;;;33.33;;
11962;SDS011;62678;52.130;5.584;2023-02-22T04:59:48;81.25;;;34.33;;
11962;SDS011;62678;52.130;5.584;2023-02-22T05:02:15;80.68;;;35.17;;
11962;SDS011;62678;52.130;5.584;2023-02-22T05:04:42;79.68;;;33.85;;
11962;SDS011;62678;52.130;5.584;2023-02-22T05:07:09;79.88;;;33.83;;
11962;SDS011;62678;52.130;5.584;2023-02-22T05:09:36;76.10;;;32.53;;
11962;SDS011;62678;52.130;5.584;2023-02-22T05:12:03;74.80;;;32.40;;
11962;SDS011;62678;52.130;5.584;2023-02-22T05:14:31;75.93;;;32.33;;
11962;SDS011;62678;52.130;5.584;2023-02-22T05:16:59;75.90;;;32.28;;
11962;SDS011;62678;52.130;5.584;2023-02-22T05:19:27;76.55;;;32.05;;
11962;SDS011;62678;52.130;5.584;2023-02-22T05:21:55;75.53;;;31.40;;
11962;SDS011;62678;52.130;5.584;2023-02-22T05:24:21;70.75;;;31.08;;
11962;SDS011;62678;52.130;5.584;2023-02-22T05:26:48;70.32;;;31.45;;
11962;SDS011;62678;52.130;5.584;2023-02-22T05:29:17;74.43;;;32.72;;
11962;SDS011;62678;52.130;5.584;2023-02-22T05:31:44;79.63;;;32.85;;
11962;SDS011;62678;52.130;5.584;2023-02-22T05:34:12;76.57;;;31.55;;
11962;SDS011;62678;52.130;5.584;2023-02-22T05:36:39;72.75;;;31.23;;
11962;SDS011;62678;52.130;5.584;2023-02-22T05:39:06;73.78;;;31.02;;
11962;SDS011;62678;52.130;5.584;2023-02-22T05:41:33;73.05;;;31.38;;
11962;SDS011;62678;52.130;5.584;2023-02-22T05:44:00;80.63;;;32.75;;
11962;SDS011;62678;52.130;5.584;2023-02-22T05:46:28;78.85;;;32.40;;
11962;SDS011;62678;52.130;5.584;2023-02-22T05:48:54;79.13;;;33.65;;
11962;SDS011;62678;52.130;5.584;2023-02-22T05:51:22;85.70;;;33.10;;
11962;SDS011;62678;52.130;5.584;2023-02-22T05:53:49;85.22;;;34.03;;
11962;SDS011;62678;52.130;5.584;2023-02-22T05:56:19;89.40;;;34.38;;
11962;SDS011;62678;52.130;5.584;2023-02-22T05:58:47;80.05;;;33.25;;
11962;SDS011;62678;52.130;5.584;2023-02-22T06:01:14;89.93;;;35.22;;
11962;SDS011;62678;52.130;5.584;2023-02-22T06:03:41;88.63;;;35.17;;
11962;SDS011;62678;52.130;5.584;2023-02-22T06:06:08;89.10;;;35.53;;
11962;SDS011;62678;52.130;5.584;2023-02-22T06:08:36;87.20;;;35.33;;
11962;SDS011;62678;52.130;5.584;2023-02-22T06:11:03;88.63;;;34.67;;
11962;SDS011;62678;52.130;5.584;2023-02-22T06:13:30;94.28;;;37.10;;
11962;SDS011;62678;52.130;5.584;2023-02-22T06:15:57;92.60;;;36.70;;
11962;SDS011;62678;52.130;5.584;2023-02-22T06:18:24;94.05;;;36.47;;
11962;SDS011;62678;52.130;5.584;2023-02-22T06:20:54;99.88;;;37.90;;
11962;SDS011;62678;52.130;5.584;2023-02-22T06:23:21;95.80;;;37.00;;
11962;SDS011;62678;52.130;5.584;2023-02-22T06:25:49;99.90;;;36.88;;
11962;SDS011;62678;52.130;5.584;2023-02-22T06:28:16;102.78;;;37.53;;
11962;SDS011;62678;52.130;5.584;2023-02-22T06:30:43;101.80;;;38.50;;
11962;SDS011;62678;52.130;5.584;2023-02-22T06:33:10;96.43;;;37.55;;
11962;SDS011;62678;52.130;5.584;2023-02-22T06:35:37;107.57;;;38.20;;
11962;SDS011;62678;52.130;5.584;2023-02-22T06:38:03;103.45;;;38.42;;
11962;SDS011;62678;52.130;5.584;2023-02-22T06:40:30;102.63;;;38.08;;
11962;SDS011;62678;52.130;5.584;2023-02-22T06:42:58;109.05;;;40.20;;
11962;SDS011;62678;52.130;5.584;2023-02-22T06:45:25;111.95;;;39.83;;
11962;SDS011;62678;52.130;5.584;2023-02-22T06:47:52;103.30;;;39.38;;
11962;SDS011;62678;52.130;5.584;2023-02-22T06:50:22;104.90;;;39.20;;
11962;SDS011;62678;52.130;5.584;2023-02-22T06:52:51;102.05;;;39.15;;
11962;SDS011;62678;52.130;5.584;2023-02-22T06:55:19;100.97;;;39.65;;
11962;SDS011;62678;52.130;5.584;2023-02-22T06:57:47;102.00;;;39.85;;
11962;SDS011;62678;52.130;5.584;2023-02-22T07:00:16;98.97;;;40.45;;
11962;SDS011;62678;52.130;5.584;2023-02-22T07:02:44;102.43;;;40.53;;
11962;SDS011;62678;52.130;5.584;2023-02-22T07:05:12;102.50;;;39.90;;
11962;SDS011;62678;52.130;5.584;2023-02-22T07:07:41;96.75;;;39.20;;
11962;SDS011;62678;52.130;5.584;2023-02-22T07:10:14;93.68;;;38.58;;
11962;SDS011;62678;52.130;5.584;2023-02-22T07:12:42;89.70;;;36.67;;
11962;SDS011;62678;52.130;5.584;2023-02-22T07:15:09;84.20;;;35.95;;
11962;SDS011;62678;52.130;5.584;2023-02-22T07:17:37;93.82;;;35.80;;
11962;SDS011;62678;52.130;5.584;2023-02-22T07:20:05;83.60;;;35.78;;
11962;SDS011;62678;52.130;5.584;2023-02-22T07:22:33;97.68;;;37.67;;
11962;SDS011;62678;52.130;5.584;2023-02-22T07:25:00;88.13;;;37.03;;
11962;SDS011;62678;52.130;5.584;2023-02-22T07:27:27;109.90;;;40.38;;
11962;SDS011;62678;52.130;5.584;2023-02-22T07:29:53;107.95;;;41.35;;
11962;SDS011;62678;52.130;5.584;2023-02-22T07:32:20;114.47;;;41.05;;
11962;SDS011;62678;52.130;5.584;2023-02-22T07:34:48;108.65;;;42.10;;
11962;SDS011;62678;52.130;5.584;2023-02-22T07:37:15;115.53;;;43.35;;
11962;SDS011;62678;52.130;5.584;2023-02-22T07:39:42;113.38;;;42.80;;
11962;SDS011;62678;52.130;5.584;2023-02-22T07:42:09;118.20;;;44.08;;
11962;SDS011;62678;52.130;5.584;2023-02-22T07:44:36;116.90;;;43.88;;
11962;SDS011;62678;52.130;5.584;2023-02-22T07:47:03;108.50;;;42.47;;
11962;SDS011;62678;52.130;5.584;2023-02-22T07:49:30;106.97;;;41.10;;
11962;SDS011;62678;52.130;5.584;2023-02-22T07:51:58;109.47;;;40.42;;
11962;SDS011;62678;52.130;5.584;2023-02-22T07:54:25;95.85;;;39.95;;
11962;SDS011;62678;52.130;5.584;2023-02-22T07:56:51;92.40;;;39.17;;
11962;SDS011;62678;52.130;5.584;2023-02-22T07:59:18;94.40;;;39.38;;
11962;SDS011;62678;52.130;5.584;2023-02-22T08:01:47;91.35;;;38.38;;
11962;SDS011;62678;52.130;5.584;2023-02-22T08:04:15;99.88;;;39.70;;
11962;SDS011;62678;52.130;5.584;2023-02-22T08:06:42;98.38;;;40.25;;
11962;SDS011;62678;52.130;5.584;2023-02-22T08:09:11;93.95;;;39.65;;
11962;SDS011;62678;52.130;5.584;2023-02-22T08:11:38;90.50;;;38.45;;
11962;SDS011;62678;52.130;5.584;2023-02-22T08:14:05;94.38;;;38.60;;
11962;SDS011;62678;52.130;5.584;2023-02-22T08:16:33;88.30;;;38.53;;
11962;SDS011;62678;52.130;5.584;2023-02-22T08:19:01;91.35;;;37.72;;
11962;SDS011;62678;52.130;5.584;2023-02-22T08:21:28;83.28;;;37.80;;
11962;SDS011;62678;52.130;5.584;2023-02-22T08:23:55;85.85;;;38.22;;
11962;SDS011;62678;52.130;5.584;2023-02-22T08:26:24;85.05;;;36.97;;
11962;SDS011;62678;52.130;5.584;2023-02-22T08:28:51;80.57;;;37.55;;
11962;SDS011;62678;52.130;5.584;2023-02-22T08:31:18;79.72;;;37.58;;
11962;SDS011;62678;52.130;5.584;2023-02-22T08:33:46;76.75;;;35.80;;
11962;SDS011;62678;52.130;5.584;2023-02-22T08:36:14;71.88;;;34.45;;
11962;SDS011;62678;52.130;5.584;2023-02-22T08:38:42;67.97;;;33.22;;
11962;SDS011;62678;52.130;5.584;2023-02-22T08:41:09;73.60;;;35.03;;
11962;SDS011;62678;52.130;5.584;2023-02-22T08:43:38;70.63;;;34.17;;
11962;SDS011;62678;52.130;5.584;2023-02-22T08:46:05;68.78;;;33.90;;
11962;SDS011;62678;52.130;5.584;2023-02-22T08:48:32;67.25;;;33.75;;
11962;SDS011;62678;52.130;5.584;2023-02-22T08:50:59;60.83;;;30.70;;
11962;SDS011;62678;52.130;5.584;2023-02-22T08:53:26;58.20;;;30.23;;
11962;SDS011;62678;52.130;5.584;2023-02-22T08:55:54;57.00;;;29.67;;
11962;SDS011;62678;52.130;5.584;2023-02-22T08:58:21;61.58;;;30.40;;
11962;SDS011;62678;52.130;5.584;2023-02-22T09:00:50;60.13;;;29.83;;
11962;SDS011;62678;52.130;5.584;2023-02-22T09:03:17;58.33;;;30.48;;
11962;SDS011;62678;52.130;5.584;2023-02-22T09:05:44;64.20;;;32.00;;
11962;SDS011;62678;52.130;5.584;2023-02-22T09:08:11;59.78;;;31.17;;
11962;SDS011;62678;52.130;5.584;2023-02-22T09:10:38;60.85;;;30.88;;
11962;SDS011;62678;52.130;5.584;2023-02-22T09:13:06;57.20;;;30.42;;
11962;SDS011;62678;52.130;5.584;2023-02-22T09:15:33;54.38;;;28.95;;
11962;SDS011;62678;52.130;5.584;2023-02-22T09:18:03;53.40;;;28.70;;
11962;SDS011;62678;52.130;5.584;2023-02-22T09:20:32;52.55;;;27.80;;
11962;SDS011;62678;52.130;5.584;2023-02-22T09:23:00;50.88;;;27.35;;
11962;SDS011;62678;52.130;5.584;2023-02-22T09:25:27;54.28;;;28.73;;
11962;SDS011;62678;52.130;5.584;2023-02-22T09:27:55;48.63;;;26.52;;
11962;SDS011;62678;52.130;5.584;2023-02-22T09:30:23;51.45;;;28.58;;
11962;SDS011;62678;52.130;5.584;2023-02-22T09:32:52;47.15;;;27.15;;
11962;SDS011;62678;52.130;5.584;2023-02-22T09:35:24;47.70;;;27.90;;
11962;SDS011;62678;52.130;5.584;2023-02-22T09:37:53;48.83;;;27.50;;
11962;SDS011;62678;52.130;5.584;2023-02-22T09:40:20;49.83;;;26.77;;
11962;SDS011;62678;52.130;5.584;2023-02-22T09:45:45;48.33;;;27.00;;
11962;SDS011;62678;52.130;5.584;2023-02-22T09:48:23;49.90;;;27.42;;
11962;SDS011;62678;52.130;5.584;2023-02-22T09:50:53;52.90;;;29.73;;
11962;SDS011;62678;52.130;5.584;2023-02-22T09:53:25;55.00;;;29.25;;
11962;SDS011;62678;52.130;5.584;2023-02-22T09:55:58;51.83;;;28.00;;
11962;SDS011;62678;52.130;5.584;2023-02-22T09:58:30;50.80;;;27.25;;
11962;SDS011;62678;52.130;5.584;2023-02-22T10:01:06;53.47;;;28.92;;
11962;SDS011;62678;52.130;5.584;2023-02-22T10:03:44;51.13;;;28.55;;
11962;SDS011;62678;52.130;5.584;2023-02-22T10:06:18;47.75;;;27.05;;
11962;SDS011;62678;52.130;5.584;2023-02-22T10:08:48;47.47;;;27.40;;
11962;SDS011;62678;52.130;5.584;2023-02-22T10:11:23;49.60;;;26.67;;
11962;SDS011;62678;52.130;5.584;2023-02-22T10:14:03;52.63;;;27.75;;
11962;SDS011;62678;52.130;5.584;2023-02-22T10:16:47;48.30;;;27.70;;
11962;SDS011;62678;52.130;5.584;2023-02-22T10:19:21;47.92;;;25.90;;
11962;SDS011;62678;52.130;5.584;2023-02-22T10:22:00;49.97;;;26.92;;
11962;SDS011;62678;52.130;5.584;2023-02-22T10:24:49;46.25;;;26.05;;
11962;SDS011;62678;52.130;5.584;2023-02-22T10:27:25;50.90;;;27.05;;
11962;SDS011;62678;52.130;5.584;2023-02-22T10:29:58;47.75;;;26.67;;
11962;SDS011;62678;52.130;5.584;2023-02-22T10:32:30;53.35;;;27.70;;
11962;SDS011;62678;52.130;5.584;2023-02-22T10:35:01;50.17;;;27.38;;
11962;SDS011;62678;52.130;5.584;2023-02-22T10:37:38;51.35;;;26.30;;
11962;SDS011;62678;52.130;5.584;2023-02-22T10:40:11;46.08;;;25.10;;
11962;SDS011;62678;52.130;5.584;2023-02-22T10:42:41;46.75;;;25.77;;
11962;SDS011;62678;52.130;5.584;2023-02-22T10:45:13;48.03;;;26.83;;
11962;SDS011;62678;52.130;5.584;2023-02-22T10:47:46;44.45;;;24.95;;
11962;SDS011;62678;52.130;5.584;2023-02-22T10:50:14;42.25;;;24.50;;
11962;SDS011;62678;52.130;5.584;2023-02-22T10:52:43;46.47;;;24.70;;
11962;SDS011;62678;52.130;5.584;2023-02-22T10:55:11;42.55;;;24.25;;
11962;SDS011;62678;52.130;5.584;2023-02-22T10:57:40;44.17;;;25.35;;
11962;SDS011;62678;52.130;5.584;2023-02-22T11:00:13;42.50;;;24.85;;
11962;SDS011;62678;52.130;5.584;2023-02-22T11:02:49;43.28;;;24.23;;
11962;SDS011;62678;52.130;5.584;2023-02-22T11:05:27;43.88;;;23.85;;
11962;SDS011;62678;52.130;5.584;2023-02-22T11:08:14;43.85;;;23.52;;
11962;SDS011;62678;52.130;5.584;2023-02-22T11:10:49;46.50;;;25.00;;
11962;SDS011;62678;52.130;5.584;2023-02-22T11:13:18;44.00;;;23.35;;
11962;SDS011;62678;52.130;5.584;2023-02-22T11:15:52;43.92;;;24.70;;
11962;SDS011;62678;52.130;5.584;2023-02-22T11:18:23;42.70;;;24.35;;
11962;SDS011;62678;52.130;5.584;2023-02-22T11:21:02;40.92;;;22.55;;
11962;SDS011;62678;52.130;5.584;2023-02-22T11:23:33;45.80;;;24.55;;
11962;SDS011;62678;52.130;5.584;2023-02-22T11:26:05;43.42;;;23.08;;
11962;SDS011;62678;52.130;5.584;2023-02-22T11:28:35;41.15;;;22.45;;
11962;SDS011;62678;52.130;5.584;2023-02-22T11:31:14;43.55;;;24.13;;
11962;SDS011;62678;52.130;5.584;2023-02-22T11:33:48;41.90;;;24.33;;
11962;SDS011;62678;52.130;5.584;2023-02-22T11:36:29;37.33;;;21.75;;
11962;SDS011;62678;52.130;5.584;2023-02-22T11:39:03;40.50;;;21.52;;
11962;SDS011;62678;52.130;5.584;2023-02-22T11:41:35;37.78;;;21.63;;
11962;SDS011;62678;52.130;5.584;2023-02-22T11:44:13;44.10;;;22.98;;
11962;SDS011;62678;52.130;5.584;2023-02-22T11:46:47;40.83;;;24.05;;
11962;SDS011;62678;52.130;5.584;2023-02-22T11:49:15;49.05;;;27.02;;
11962;SDS011;62678;52.130;5.584;2023-02-22T11:51:47;44.65;;;25.85;;
11962;SDS011;62678;52.130;5.584;2023-02-22T11:54:27;51.97;;;26.95;;
11962;SDS011;62678;52.130;5.584;2023-02-22T11:57:14;47.55;;;25.05;;
11962;SDS011;62678;52.130;5.584;2023-02-22T11:59:56;46.30;;;26.10;;
11962;SDS011;62678;52.130;5.584;2023-02-22T12:02:41;45.80;;;26.35;;
11962;SDS011;62678;52.130;5.584;2023-02-22T12:05:29;49.08;;;25.95;;
11962;SDS011;62678;52.130;5.584;2023-02-22T12:08:14;48.65;;;24.77;;
11962;SDS011;62678;52.130;5.584;2023-02-22T12:10:54;45.97;;;24.75;;
11962;SDS011;62678;52.130;5.584;2023-02-22T12:13:32;49.95;;;26.83;;
11962;SDS011;62678;52.130;5.584;2023-02-22T12:16:17;47.35;;;26.45;;
11962;SDS011;62678;52.130;5.584;2023-02-22T12:18:56;47.90;;;26.05;;
11962;SDS011;62678;52.130;5.584;2023-02-22T12:21:42;51.67;;;25.63;;
11962;SDS011;62678;52.130;5.584;2023-02-22T12:24:17;50.38;;;26.35;;
11962;SDS011;62678;52.130;5.584;2023-02-22T12:26:49;47.08;;;25.27;;
11962;SDS011;62678;52.130;5.584;2023-02-22T12:29:25;50.40;;;29.52;;
11962;SDS011;62678;52.130;5.584;2023-02-22T12:31:56;49.28;;;26.00;;
11962;SDS011;62678;52.130;5.584;2023-02-22T12:34:28;49.80;;;26.15;;
11962;SDS011;62678;52.130;5.584;2023-02-22T12:36:59;43.63;;;23.92;;
11962;SDS011;62678;52.130;5.584;2023-02-22T12:39:36;48.50;;;24.77;;
11962;SDS011;62678;52.130;5.584;2023-02-22T12:42:12;45.20;;;25.35;;
11962;SDS011;62678;52.130;5.584;2023-02-22T12:44:44;45.45;;;24.50;;
11962;SDS011;62678;52.130;5.584;2023-02-22T12:47:17;46.38;;;24.13;;
11962;SDS011;62678;52.130;5.584;2023-02-22T12:49:50;47.40;;;24.02;;
11962;SDS011;62678;52.130;5.584;2023-02-22T12:52:25;45.42;;;24.63;;
11962;SDS011;62678;52.130;5.584;2023-02-22T12:55:06;45.33;;;24.10;;
11962;SDS011;62678;52.130;5.584;2023-02-22T12:57:43;48.20;;;24.90;;
11962;SDS011;62678;52.130;5.584;2023-02-22T13:00:18;47.47;;;25.77;;
11962;SDS011;62678;52.130;5.584;2023-02-22T13:02:53;47.60;;;24.90;;
11962;SDS011;62678;52.130;5.584;2023-02-22T13:05:24;43.03;;;23.30;;
11962;SDS011;62678;52.130;5.584;2023-02-22T13:08:04;43.63;;;24.05;;
11962;SDS011;62678;52.130;5.584;2023-02-22T13:10:46;40.20;;;23.63;;
11962;SDS011;62678;52.130;5.584;2023-02-22T13:13:28;45.03;;;24.48;;
11962;SDS011;62678;52.130;5.584;2023-02-22T13:16:04;47.38;;;24.80;;
11962;SDS011;62678;52.130;5.584;2023-02-22T13:18:41;42.10;;;24.42;;
11962;SDS011;62678;52.130;5.584;2023-02-22T13:21:14;47.92;;;25.83;;
11962;SDS011;62678;52.130;5.584;2023-02-22T13:23:51;50.70;;;27.70;;
11962;SDS011;62678;52.130;5.584;2023-02-22T13:26:27;44.08;;;25.05;;
11962;SDS011;62678;52.130;5.584;2023-02-22T13:29:01;43.15;;;24.60;;
11962;SDS011;62678;52.130;5.584;2023-02-22T13:34:34;48.03;;;25.40;;
11962;SDS011;62678;52.130;5.584;2023-02-22T13:37:16;47.35;;;26.77;;
11962;SDS011;62678;52.130;5.584;2023-02-22T13:40:07;43.50;;;26.08;;
11962;SDS011;62678;52.130;5.584;2023-02-22T13:42:55;47.45;;;27.02;;
11962;SDS011;62678;52.130;5.584;2023-02-22T13:45:42;42.47;;;25.73;;
11962;SDS011;62678;52.130;5.584;2023-02-22T13:48:40;46.63;;;25.95;;
11962;SDS011;62678;52.130;5.584;2023-02-22T13:51:32;49.30;;;26.52;;
11962;SDS011;62678;52.130;5.584;2023-02-22T13:54:12;47.58;;;26.60;;
11962;SDS011;62678;52.130;5.584;2023-02-22T13:56:45;42.53;;;24.95;;
11962;SDS011;62678;52.130;5.584;2023-02-22T13:59:27;46.97;;;26.00;;
11962;SDS011;62678;52.130;5.584;2023-02-22T14:01:57;43.53;;;25.30;;
11962;SDS011;62678;52.130;5.584;2023-02-22T14:10:35;43.63;;;24.98;;
11962;SDS011;62678;52.130;5.584;2023-02-22T14:13:05;44.95;;;25.42;;
11962;SDS011;62678;52.130;5.584;2023-02-22T14:15:32;43.53;;;25.58;;
11962;SDS011;62678;52.130;5.584;2023-02-22T14:18:01;46.65;;;25.17;;
11962;SDS011;62678;52.130;5.584;2023-02-22T14:20:29;44.45;;;25.33;;
11962;SDS011;62678;52.130;5.584;2023-02-22T14:26:08;48.05;;;24.98;;
11962;SDS011;62678;52.130;5.584;2023-02-22T14:28:39;44.80;;;25.35;;
11962;SDS011;62678;52.130;5.584;2023-02-22T14:31:13;50.92;;;27.88;;
11962;SDS011;62678;52.130;5.584;2023-02-22T14:33:50;44.10;;;25.90;;
11962;SDS011;62678;52.130;5.584;2023-02-22T14:36:38;47.08;;;27.23;;
11962;SDS011;62678;52.130;5.584;2023-02-22T14:39:18;48.67;;;26.75;;
11962;SDS011;62678;52.130;5.584;2023-02-22T14:41:50;49.13;;;28.17;;
11962;SDS011;62678;52.130;5.584;2023-02-22T14:44:23;45.22;;;26.15;;
11962;SDS011;62678;52.130;5.584;2023-02-22T14:46:53;44.22;;;25.77;;
11962;SDS011;62678;52.130;5.584;2023-02-22T14:49:27;49.92;;;26.42;;
11962;SDS011;62678;52.130;5.584;2023-02-22T14:51:58;46.33;;;26.17;;
11962;SDS011;62678;52.130;5.584;2023-02-22T14:54:30;40.38;;;23.70;;
11962;SDS011;62678;52.130;5.584;2023-02-22T14:57:06;37.22;;;23.05;;
11962;SDS011;62678;52.130;5.584;2023-02-22T14:59:54;38.20;;;23.05;;
11962;SDS011;62678;52.130;5.584;2023-02-22T15:02:36;33.85;;;21.55;;